createdAt,value
2018-05-21T00:01:23.426Z,101455.42
2018-05-21T00:03:00.639Z,101459.39
2018-05-21T00:04:37.081Z,101450.51
2018-05-21T00:06:14.272Z,101512.96
2018-05-21T00:07:57.040Z,101351.01
2018-05-21T00:09:33.431Z,101287.30
2018-05-21T00:11:10.081Z,101303.78
2018-05-21T00:12:47.155Z,101342.55
2018-05-21T00:14:58.429Z,101324.73
2018-05-21T00:16:35.732Z,101317.59
2018-05-21T00:18:14.298Z,101332.31
2018-05-21T00:19:51.544Z,101306.87
2018-05-21T00:21:30.161Z,101323.84
2018-05-21T00:23:06.950Z,101319.02
2018-05-21T00:24:43.807Z,101329.25
2018-05-21T00:26:53.852Z,101388.55
2018-05-21T00:28:32.467Z,101366.64
2018-05-21T00:30:13.226Z,101344.80
2018-05-21T00:31:55.577Z,101339.98
2018-05-21T00:33:33.358Z,101314.97
2018-05-21T00:35:09.748Z,101266.40
2018-05-21T00:36:46.002Z,101266.40
2018-05-21T00:38:22.781Z,101219.92
2018-05-21T00:39:59.532Z,101231.55
2018-05-21T00:41:36.757Z,101287.79
2018-05-21T00:43:13.097Z,101302.97
2018-05-21T00:44:50.331Z,101254.35
2018-05-21T00:46:26.883Z,101255.20
2018-05-21T00:48:03.757Z,101300.25
2018-05-21T00:49:40.488Z,101327.88
2018-05-21T00:51:23.168Z,101317.20
2018-05-21T00:53:01.952Z,101441.59
2018-05-21T00:54:47.131Z,101493.75
2018-05-21T00:56:24.921Z,101422.03
2018-05-21T00:58:03.367Z,101365.73
2018-05-21T00:59:42.964Z,101272.57
2018-05-21T01:01:20.494Z,101232.88
2018-05-21T01:02:57.306Z,101190.11
2018-05-21T01:04:33.877Z,101155.84
2018-05-21T01:06:15.946Z,101181.27
2018-05-21T01:07:53.843Z,101104.70
2018-05-21T01:09:31.046Z,101093.98
2018-05-21T01:11:07.585Z,101157.28
2018-05-21T01:12:43.995Z,101187.00
2018-05-21T01:14:20.342Z,101180.77
2018-05-21T01:15:57.235Z,101143.80
2018-05-21T01:17:34.115Z,101108.16
2018-05-21T01:19:11.303Z,101059.23
2018-05-21T01:20:47.792Z,100999.59
2018-05-21T01:22:24.462Z,101000.53
2018-05-21T01:24:01.119Z,101002.70
2018-05-21T01:25:37.404Z,100962.77
2018-05-21T01:27:15.855Z,100936.50
2018-05-21T01:28:55.795Z,100961.77
2018-05-21T01:30:32.715Z,100912.89
2018-05-21T01:32:09.101Z,100918.66
2018-05-21T01:33:45.586Z,100984.95
2018-05-21T01:35:22.989Z,101008.53
2018-05-21T01:37:00.002Z,100922.22
2018-05-21T01:38:36.396Z,100920.42
2018-05-21T01:40:13.489Z,100946.20
2018-05-21T01:44:22.337Z,100964.86
2018-05-21T01:45:59.354Z,100980.94
2018-05-21T01:47:36.203Z,100988.47
2018-05-21T01:49:12.481Z,100981.81
2018-05-21T01:50:49.622Z,100911.05
2018-05-21T01:52:25.931Z,100893.63
2018-05-21T01:54:02.642Z,100871.46
2018-05-21T01:55:39.772Z,100834.56
2018-05-21T01:57:16.743Z,100743.02
2018-05-21T01:58:53.614Z,100754.53
2018-05-21T02:00:30.845Z,100766.14
2018-05-21T02:02:07.190Z,100730.55
2018-05-21T02:03:43.466Z,100780.38
2018-05-21T02:05:19.825Z,100772.76
2018-05-21T02:06:56.670Z,100770.16
2018-05-21T02:08:33.057Z,100768.39
2018-05-21T02:10:09.925Z,100770.06
2018-05-21T02:11:46.166Z,100779.87
2018-05-21T02:13:22.998Z,100777.66
2018-05-21T02:14:59.333Z,100804.31
2018-05-21T02:16:35.876Z,100832.80
2018-05-21T02:18:12.275Z,100807.86
2018-05-21T02:19:51.010Z,100793.17
2018-05-21T02:21:27.560Z,100832.77
2018-05-21T02:23:08.998Z,100835.47
2018-05-21T02:24:46.277Z,100806.13
2018-05-21T02:26:23.047Z,100783.89
2018-05-21T02:27:59.356Z,100771.44
2018-05-21T02:29:36.107Z,100764.77
2018-05-21T02:31:12.464Z,100783.42
2018-05-21T02:32:49.487Z,100703.92
2018-05-21T02:34:26.125Z,100632.95
2018-05-21T02:36:03.754Z,100636.92
2018-05-21T02:37:40.426Z,100680.91
2018-05-21T02:39:17.152Z,100694.17
2018-05-21T02:40:54.076Z,100715.48
2018-05-21T02:42:30.522Z,100757.67
2018-05-21T02:44:07.841Z,100752.28
2018-05-21T02:45:44.875Z,100753.69
2018-05-21T02:47:21.311Z,100754.59
2018-05-21T02:48:57.668Z,100775.89
2018-05-21T02:50:34.049Z,100767.89
2018-05-21T02:52:11.454Z,100749.64
2018-05-21T02:53:47.730Z,100739.89
2018-05-21T02:55:24.138Z,100723.52
2018-05-21T02:57:01.060Z,100682.63
2018-05-21T02:58:37.726Z,100680.81
2018-05-21T03:00:16.758Z,100592.87
2018-05-21T03:01:54.655Z,100562.73
2018-05-21T03:03:31.777Z,100486.84
2018-05-21T03:05:09.825Z,100464.61
2018-05-21T03:06:46.073Z,100461.55
2018-05-21T03:08:22.763Z,100463.70
2018-05-21T03:10:02.365Z,100460.20
2018-05-21T03:11:39.040Z,100426.95
2018-05-21T03:13:15.302Z,100399.03
2018-05-21T03:14:51.950Z,100379.09
2018-05-21T03:16:28.896Z,100405.22
2018-05-21T03:18:05.338Z,100432.30
2018-05-21T03:19:41.747Z,100497.89
2018-05-21T03:21:18.289Z,100538.77
2018-05-21T03:22:54.838Z,100584.53
2018-05-21T03:24:31.409Z,100588.45
2018-05-21T03:26:07.828Z,100567.62
2018-05-21T03:27:44.052Z,100603.13
2018-05-21T03:29:21.127Z,100553.02
2018-05-21T03:30:58.321Z,100517.84
2018-05-21T03:32:34.770Z,100480.23
2018-05-21T03:34:11.123Z,100441.63
2018-05-21T03:35:47.467Z,100442.06
2018-05-21T03:37:24.414Z,100486.88
2018-05-21T03:39:01.413Z,100515.24
2018-05-21T03:40:37.645Z,100506.82
2018-05-21T03:42:14.606Z,100492.57
2018-05-21T03:43:51.530Z,100524.11
2018-05-21T03:45:28.017Z,100563.11
2018-05-21T03:47:04.483Z,100580.09
2018-05-21T03:48:41.240Z,100620.04
2018-05-21T03:50:17.933Z,100631.63
2018-05-21T03:51:58.543Z,100629.82
2018-05-21T03:53:35.102Z,100722.11
2018-05-21T03:55:11.353Z,100802.58
2018-05-21T03:56:48.045Z,100855.05
2018-05-21T03:58:37.415Z,100878.17
2018-05-21T04:01:28.941Z,100918.66
2018-05-21T04:03:33.346Z,100871.02
2018-05-21T04:05:09.910Z,100870.23
2018-05-21T04:06:46.636Z,100918.66
2018-05-21T04:08:23.460Z,100975.62
2018-05-21T04:09:59.953Z,100980.95
2018-05-21T04:11:36.750Z,100995.16
2018-05-21T04:13:16.481Z,100989.34
2018-05-21T04:14:54.328Z,101081.13
2018-05-21T04:16:30.866Z,101179.45
2018-05-21T04:18:07.417Z,101253.00
2018-05-21T04:19:43.882Z,101343.48
2018-05-21T04:21:22.959Z,101408.21
2018-05-21T04:23:00.421Z,101367.55
2018-05-21T04:24:46.922Z,101335.48
2018-05-21T04:26:26.060Z,101310.56
2018-05-21T04:28:05.266Z,101285.58
2018-05-21T04:29:44.127Z,101300.74
2018-05-21T04:31:20.806Z,101250.80
2018-05-21T04:32:57.596Z,101345.85
2018-05-21T04:34:33.945Z,101449.73
2018-05-21T04:36:10.282Z,101549.20
2018-05-21T04:37:46.988Z,101616.22
2018-05-21T04:39:23.631Z,101700.70
2018-05-21T04:41:00.403Z,101798.54
2018-05-21T04:42:37.278Z,101920.67
2018-05-21T04:44:14.037Z,102000.80
2018-05-21T04:45:51.241Z,102018.22
2018-05-21T04:47:27.553Z,102013.73
2018-05-21T04:49:03.862Z,102035.31
2018-05-21T04:50:40.117Z,101945.77
2018-05-21T04:52:16.874Z,101930.57
2018-05-21T04:53:53.221Z,101932.39
2018-05-21T04:55:29.499Z,101860.36
2018-05-21T04:57:06.009Z,101955.17
2018-05-21T04:58:42.989Z,102052.78
2018-05-21T05:00:20.923Z,102094.84
2018-05-21T05:01:57.539Z,102163.85
2018-05-21T05:03:34.605Z,102275.91
2018-05-21T05:05:11.368Z,102239.08
2018-05-21T05:06:49.399Z,102302.74
2018-05-21T05:08:25.872Z,102285.25
2018-05-21T05:10:02.214Z,102005.80
2018-05-21T05:11:40.205Z,101994.12
2018-05-21T05:13:16.704Z,102074.24
2018-05-21T05:14:55.679Z,101941.72
2018-05-21T05:16:32.396Z,101828.06
2018-05-21T05:18:10.010Z,101745.41
2018-05-21T05:19:46.615Z,101669.89
2018-05-21T05:21:24.060Z,101650.69
2018-05-21T05:23:00.369Z,101491.73
2018-05-21T05:24:37.917Z,101442.64
2018-05-21T05:26:14.276Z,101439.11
2018-05-21T05:27:50.681Z,101449.81
2018-05-21T05:29:27.000Z,101504.64
2018-05-21T05:31:03.995Z,101554.22
2018-05-21T05:32:40.282Z,101625.25
2018-05-21T05:34:16.625Z,101737.36
2018-05-21T05:35:52.956Z,101799.84
2018-05-21T05:37:29.741Z,101841.89
2018-05-21T05:39:08.367Z,101840.98
2018-05-21T05:40:45.038Z,101783.83
2018-05-21T05:42:21.960Z,101764.12
2018-05-21T05:43:58.777Z,101771.23
2018-05-21T05:45:35.467Z,101758.70
2018-05-21T05:47:11.844Z,101759.15
2018-05-21T05:48:48.160Z,101744.39
2018-05-21T05:50:28.610Z,101742.70
2018-05-21T05:52:05.014Z,101701.53
2018-05-21T05:53:41.452Z,101630.06
2018-05-21T05:55:18.355Z,101719.43
2018-05-21T05:56:55.075Z,101729.25
2018-05-21T05:58:31.746Z,101743.06
2018-05-21T06:00:09.019Z,101730.13
2018-05-21T06:01:45.729Z,101711.75
2018-05-21T06:03:23.062Z,101692.16
2018-05-21T06:04:59.587Z,101742.20
2018-05-21T06:06:36.014Z,101744.39
2018-05-21T06:08:12.403Z,101729.16
2018-05-21T06:09:49.531Z,101748.87
2018-05-21T06:11:27.118Z,101759.56
2018-05-21T06:13:03.900Z,101707.72
2018-05-21T06:14:40.282Z,101596.07
2018-05-21T06:16:17.890Z,101494.22
2018-05-21T06:17:54.223Z,101419.72
2018-05-21T06:19:30.678Z,101385.38
2018-05-21T06:21:07.261Z,101343.87
2018-05-21T06:22:44.074Z,101368.91
2018-05-21T06:24:21.372Z,101399.63
2018-05-21T06:25:57.769Z,101471.03
2018-05-21T06:27:34.147Z,101535.73
2018-05-21T06:29:11.104Z,101561.60
2018-05-21T06:30:48.122Z,101563.88
2018-05-21T06:32:24.926Z,101520.53
2018-05-21T06:34:01.297Z,101463.84
2018-05-21T06:35:40.357Z,101431.69
2018-05-21T06:37:17.812Z,101448.27
2018-05-21T06:38:56.239Z,101475.92
2018-05-21T06:40:34.403Z,101533.49
2018-05-21T06:42:11.320Z,101597.73
2018-05-21T06:43:48.229Z,101687.53
2018-05-21T06:45:24.649Z,101721.05
2018-05-21T06:47:01.118Z,101752.75
2018-05-21T06:48:38.097Z,101804.14
2018-05-21T06:50:14.675Z,101906.17
2018-05-21T06:51:55.046Z,102022.53
2018-05-21T06:53:32.403Z,102157.75
2018-05-21T06:55:09.951Z,102255.44
2018-05-21T06:56:46.236Z,102314.65
2018-05-21T06:58:25.171Z,102336.61
2018-05-21T07:00:01.633Z,102394.95
2018-05-21T07:01:39.630Z,102414.66
2018-05-21T07:03:17.091Z,102350.48
2018-05-21T07:04:54.115Z,102311.05
2018-05-21T07:06:30.515Z,102266.66
2018-05-21T07:08:08.006Z,102223.23
2018-05-21T07:09:44.316Z,102247.00
2018-05-21T07:11:20.674Z,102269.82
2018-05-21T07:12:57.002Z,102310.16
2018-05-21T07:14:33.960Z,102316.91
2018-05-21T07:16:10.558Z,102235.73
2018-05-21T07:17:47.733Z,102193.22
2018-05-21T07:19:24.887Z,102218.31
2018-05-21T07:21:01.930Z,102290.00
2018-05-21T07:22:38.226Z,102404.76
2018-05-21T07:24:15.401Z,102470.80
2018-05-21T07:25:51.754Z,102569.06
2018-05-21T07:27:28.470Z,102614.02
2018-05-21T07:29:05.643Z,102685.03
2018-05-21T07:30:42.285Z,102802.31
2018-05-21T07:32:18.542Z,102946.70
2018-05-21T07:33:55.779Z,103092.20
2018-05-21T07:35:32.806Z,103164.73
2018-05-21T07:37:09.266Z,103252.60
2018-05-21T07:38:46.610Z,103211.12
2018-05-21T07:40:22.887Z,103155.73
2018-05-21T07:41:59.427Z,103131.02
2018-05-21T07:43:36.573Z,103148.09
2018-05-21T07:45:13.576Z,103156.62
2018-05-21T07:46:50.057Z,103176.48
2018-05-21T07:48:26.892Z,103164.30
2018-05-21T07:50:03.305Z,103183.66
2018-05-21T07:51:40.106Z,103181.41
2018-05-21T07:53:17.152Z,103267.52
2018-05-21T07:54:54.615Z,103302.69
2018-05-21T07:56:31.116Z,103423.14
2018-05-21T07:58:08.033Z,103599.17
2018-05-21T07:59:44.377Z,103372.13
2018-05-21T08:01:21.597Z,103144.48
2018-05-21T08:02:58.623Z,102989.52
2018-05-21T08:04:36.740Z,102927.87
2018-05-21T08:06:14.966Z,103233.69
2018-05-21T08:07:51.595Z,103483.55
2018-05-21T08:09:27.907Z,103510.66
2018-05-21T08:11:05.526Z,103536.84
2018-05-21T08:12:42.406Z,103359.92
2018-05-21T08:14:18.875Z,103113.83
2018-05-21T08:15:55.406Z,103036.31
2018-05-21T08:17:32.686Z,103007.98
2018-05-21T08:19:10.094Z,102939.59
2018-05-21T08:20:46.403Z,103289.14
2018-05-21T08:22:23.221Z,103168.78
2018-05-21T08:23:59.964Z,102857.68
2018-05-21T08:25:36.949Z,102864.84
2018-05-21T08:27:14.090Z,102976.87
2018-05-21T08:28:50.366Z,102952.55
2018-05-21T08:30:27.081Z,103026.37
2018-05-21T08:32:04.095Z,102930.07
2018-05-21T08:33:40.401Z,102939.09
2018-05-21T08:35:17.545Z,102949.83
2018-05-21T08:36:54.427Z,102898.98
2018-05-21T08:38:30.693Z,102988.95
2018-05-21T08:40:07.123Z,102993.48
2018-05-21T08:41:43.647Z,102993.48
2018-05-21T08:43:21.305Z,102965.11
2018-05-21T08:44:58.221Z,102771.71
2018-05-21T08:46:34.574Z,102725.39
2018-05-21T08:48:11.939Z,102719.09
2018-05-21T08:49:48.875Z,102835.97
2018-05-21T08:51:25.168Z,102846.77
2018-05-21T08:53:02.281Z,102974.11
2018-05-21T08:54:38.684Z,102962.81
2018-05-21T08:56:15.559Z,103001.53
2018-05-21T08:57:52.136Z,102904.75
2018-05-21T08:59:28.570Z,102789.63
2018-05-21T09:01:05.372Z,102748.73
2018-05-21T09:02:42.878Z,102708.29
2018-05-21T09:04:19.097Z,102722.61
2018-05-21T09:05:56.004Z,102830.14
2018-05-21T09:07:33.299Z,102701.44
2018-05-21T09:09:11.865Z,102553.27
2018-05-21T09:10:48.152Z,102476.88
2018-05-21T09:12:25.413Z,102465.69
2018-05-21T09:14:01.674Z,102469.25
2018-05-21T09:15:38.671Z,102500.66
2018-05-21T09:17:15.859Z,102503.83
2018-05-21T09:18:53.017Z,102565.79
2018-05-21T09:20:29.656Z,102610.65
2018-05-21T09:22:06.902Z,102683.05
2018-05-21T09:23:44.108Z,102678.48
2018-05-21T09:25:20.432Z,102667.67
2018-05-21T09:26:57.070Z,102687.97
2018-05-21T09:28:33.777Z,102737.86
2018-05-21T09:30:13.493Z,102781.86
2018-05-21T09:31:49.883Z,102748.63
2018-05-21T09:33:27.041Z,102709.02
2018-05-21T09:35:03.704Z,102722.03
2018-05-21T09:36:41.841Z,102882.16
2018-05-21T09:38:19.585Z,103043.28
2018-05-21T09:39:56.723Z,102956.42
2018-05-21T09:41:33.836Z,102919.44
2018-05-21T09:43:10.560Z,102909.09
2018-05-21T09:44:47.694Z,102755.78
2018-05-21T09:46:25.431Z,102782.67
2018-05-21T09:48:02.327Z,102803.86
2018-05-21T09:49:50.603Z,102801.61
2018-05-21T09:51:27.158Z,102856.49
2018-05-21T09:53:03.677Z,102928.01
2018-05-21T09:54:40.505Z,103037.37
2018-05-21T09:56:17.004Z,103039.66
2018-05-21T09:57:53.631Z,103003.12
2018-05-21T09:59:31.228Z,102939.23
2018-05-21T10:01:08.375Z,102928.91
2018-05-21T10:02:44.822Z,103010.36
2018-05-21T10:04:21.140Z,102984.67
2018-05-21T10:05:57.457Z,102965.33
2018-05-21T10:07:34.133Z,102999.52
2018-05-21T10:09:10.819Z,103052.66
2018-05-21T10:10:47.245Z,103049.91
2018-05-21T10:12:25.187Z,102942.37
2018-05-21T10:14:02.447Z,102917.57
2018-05-21T10:15:39.125Z,102943.67
2018-05-21T10:17:15.506Z,102902.73
2018-05-21T10:18:51.862Z,102907.65
2018-05-21T10:20:28.594Z,102949.06
2018-05-21T10:22:05.355Z,102930.61
2018-05-21T10:23:42.120Z,102933.30
2018-05-21T10:25:20.057Z,102934.67
2018-05-21T10:26:56.455Z,102931.51
2018-05-21T10:28:32.802Z,102936.91
2018-05-21T10:30:18.582Z,102905.84
2018-05-21T10:31:55.000Z,102839.27
2018-05-21T10:33:32.481Z,102806.44
2018-05-21T10:35:09.053Z,102894.58
2018-05-21T10:36:45.810Z,102923.80
2018-05-21T10:38:23.503Z,103021.03
2018-05-21T10:40:01.023Z,103059.28
2018-05-21T10:41:37.429Z,103092.58
2018-05-21T10:43:14.292Z,102980.06
2018-05-21T10:44:51.045Z,102985.93
2018-05-21T10:46:28.216Z,103075.06
2018-05-21T10:48:05.483Z,103215.19
2018-05-21T10:49:42.706Z,103228.64
2018-05-21T10:51:19.228Z,103231.81
2018-05-21T10:52:55.897Z,103201.23
2018-05-21T10:54:32.205Z,103134.09
2018-05-21T10:56:08.654Z,103108.77
2018-05-21T10:57:45.793Z,103075.94
2018-05-21T10:59:22.929Z,103093.01
2018-05-21T11:00:59.611Z,103105.19
2018-05-21T11:02:35.897Z,103122.33
2018-05-21T11:04:12.473Z,103060.13
2018-05-21T11:05:49.336Z,103137.66
2018-05-21T11:07:25.646Z,103213.28
2018-05-21T11:09:02.006Z,103234.91
2018-05-21T11:10:38.558Z,103248.48
2018-05-21T11:12:14.890Z,103152.91
2018-05-21T11:13:51.205Z,103129.47
2018-05-21T11:15:27.958Z,103203.80
2018-05-21T11:17:04.292Z,103212.38
2018-05-21T11:18:41.014Z,103145.27
2018-05-21T11:20:17.314Z,103117.68
2018-05-21T11:21:54.373Z,103118.15
2018-05-21T11:23:31.576Z,103042.02
2018-05-21T11:25:08.457Z,103101.03
2018-05-21T11:26:45.546Z,103187.96
2018-05-21T11:28:22.989Z,103196.52
2018-05-21T11:30:00.201Z,103270.94
2018-05-21T11:31:38.026Z,103246.60
2018-05-21T11:33:14.425Z,103181.23
2018-05-21T11:34:50.784Z,103215.42
2018-05-21T11:36:27.256Z,103284.84
2018-05-21T11:38:04.148Z,103381.84
2018-05-21T11:39:41.690Z,103256.44
2018-05-21T11:41:18.588Z,103263.70
2018-05-21T11:42:55.817Z,103228.90
2018-05-21T11:44:32.520Z,103174.39
2018-05-21T11:46:09.271Z,103309.62
2018-05-21T11:47:45.661Z,103402.09
2018-05-21T11:49:22.376Z,103433.67
2018-05-21T11:51:00.068Z,103462.55
2018-05-21T11:52:36.464Z,103506.84
2018-05-21T11:54:12.857Z,103416.92
2018-05-21T11:55:49.226Z,103488.30
2018-05-21T11:57:25.822Z,103427.75
2018-05-21T11:59:02.351Z,103346.13
2018-05-21T12:00:39.159Z,103263.14
2018-05-21T12:02:15.518Z,103279.78
2018-05-21T12:03:53.137Z,103228.34
2018-05-21T12:05:29.656Z,103140.89
2018-05-21T12:07:06.102Z,103178.80
2018-05-21T12:08:42.423Z,103245.95
2018-05-21T12:10:20.288Z,103265.75
2018-05-21T12:11:56.523Z,103212.09
2018-05-21T12:13:33.722Z,103252.70
2018-05-21T12:15:10.150Z,103335.20
2018-05-21T12:16:47.934Z,103351.91
2018-05-21T12:18:24.327Z,103384.33
2018-05-21T12:20:00.665Z,103416.37
2018-05-21T12:21:37.935Z,103360.86
2018-05-21T12:23:15.159Z,103392.91
2018-05-21T12:24:51.698Z,103353.18
2018-05-21T12:26:28.389Z,103368.08
2018-05-21T12:28:04.673Z,103405.52
2018-05-21T12:29:43.548Z,103508.87
2018-05-21T12:31:21.414Z,103535.50
2018-05-21T12:32:58.079Z,103531.00
2018-05-21T12:34:34.407Z,103544.50
2018-05-21T12:36:11.282Z,103552.20
2018-05-21T12:37:48.480Z,103468.19
2018-05-21T12:39:25.139Z,103437.06
2018-05-21T12:41:01.659Z,103473.61
2018-05-21T12:42:39.806Z,103541.32
2018-05-21T12:44:17.626Z,103532.23
2018-05-21T12:45:55.677Z,103559.80
2018-05-21T12:47:34.588Z,103619.41
2018-05-21T12:49:23.366Z,103609.01
2018-05-21T12:51:00.563Z,103520.50
2018-05-21T12:52:38.571Z,103543.53
2018-05-21T12:54:15.139Z,103660.05
2018-05-21T12:55:51.951Z,103758.11
2018-05-21T12:57:28.815Z,103724.66
2018-05-21T12:59:05.324Z,103735.95
2018-05-21T13:00:41.823Z,103784.80
2018-05-21T13:02:18.294Z,103723.73
2018-05-21T13:03:54.875Z,103637.36
2018-05-21T13:05:31.574Z,103596.26
2018-05-21T13:07:08.072Z,103561.02
2018-05-21T13:08:44.911Z,103536.15
2018-05-21T13:10:21.475Z,103443.66
2018-05-21T13:11:58.343Z,103421.52
2018-05-21T13:13:35.431Z,103453.56
2018-05-21T13:15:13.852Z,103563.26
2018-05-21T13:16:50.625Z,103525.70
2018-05-21T13:18:28.342Z,103536.55
2018-05-21T13:20:04.925Z,103553.27
2018-05-21T13:21:42.402Z,103556.88
2018-05-21T13:23:18.801Z,103552.34
2018-05-21T13:24:55.158Z,103583.05
2018-05-21T13:26:31.602Z,103622.31
2018-05-21T13:28:08.113Z,103616.89
2018-05-21T13:29:44.424Z,103559.56
2018-05-21T13:31:21.881Z,103442.58
2018-05-21T13:32:58.459Z,103359.03
2018-05-21T13:34:35.329Z,103364.02
2018-05-21T13:36:11.651Z,103434.92
2018-05-21T13:37:48.772Z,103539.14
2018-05-21T13:39:28.649Z,103618.63
2018-05-21T13:41:05.785Z,103569.83
2018-05-21T13:42:42.098Z,103552.20
2018-05-21T13:44:19.242Z,103368.44
2018-05-21T13:45:56.115Z,103248.96
2018-05-21T13:47:34.101Z,103220.98
2018-05-21T13:49:10.398Z,103224.53
2018-05-21T13:50:47.898Z,103196.56
2018-05-21T13:52:24.406Z,103218.63
2018-05-21T13:54:01.961Z,103311.95
2018-05-21T13:55:38.624Z,103349.88
2018-05-21T13:57:14.939Z,103387.75
2018-05-21T13:58:52.852Z,103420.27
2018-05-21T14:00:29.885Z,103460.87
2018-05-21T14:02:06.363Z,103527.24
2018-05-21T14:03:44.085Z,103575.48
2018-05-21T14:05:20.390Z,103509.12
2018-05-21T14:06:58.570Z,103437.38
2018-05-21T14:08:34.970Z,103451.83
2018-05-21T14:10:11.945Z,103464.41
2018-05-21T14:11:49.084Z,103458.52
2018-05-21T14:13:26.280Z,103472.97
2018-05-21T14:15:04.637Z,103533.45
2018-05-21T14:16:41.065Z,103495.58
2018-05-21T14:18:17.425Z,103432.34
2018-05-21T14:19:54.222Z,103430.08
2018-05-21T14:21:31.690Z,103423.73
2018-05-21T14:23:08.208Z,103396.64
2018-05-21T14:24:44.637Z,103384.85
2018-05-21T14:26:21.350Z,103395.70
2018-05-21T14:27:57.617Z,103431.81
2018-05-21T14:29:34.060Z,103420.94
2018-05-21T14:31:10.640Z,103545.55
2018-05-21T14:32:49.028Z,103596.56
2018-05-21T14:34:26.299Z,103595.66
2018-05-21T14:36:03.169Z,103537.83
2018-05-21T14:37:39.566Z,103527.08
2018-05-21T14:39:15.901Z,103588.39
2018-05-21T14:40:52.309Z,103513.89
2018-05-21T14:42:29.067Z,103421.74
2018-05-21T14:44:05.418Z,103400.11
2018-05-21T14:45:42.732Z,103435.31
2018-05-21T14:47:19.191Z,103466.48
2018-05-21T14:49:03.946Z,103503.45
2018-05-21T14:50:41.510Z,103620.44
2018-05-21T14:52:18.190Z,103552.66
2018-05-21T14:53:54.469Z,103499.80
2018-05-21T14:55:30.980Z,103447.01
2018-05-21T14:57:07.314Z,103487.20
2018-05-21T14:58:45.656Z,103590.54
2018-05-21T15:00:22.624Z,103572.02
2018-05-21T15:02:00.332Z,103454.64
2018-05-21T15:03:38.577Z,103457.83
2018-05-21T15:05:16.030Z,103377.47
2018-05-21T15:06:54.675Z,103329.17
2018-05-21T15:08:31.435Z,103317.41
2018-05-21T15:10:07.777Z,103305.19
2018-05-21T15:11:45.409Z,103289.88
2018-05-21T15:13:22.092Z,103311.48
2018-05-21T15:14:58.406Z,103347.63
2018-05-21T15:16:34.828Z,103415.72
2018-05-21T15:18:11.699Z,103477.98
2018-05-21T15:19:48.036Z,103409.41
2018-05-21T15:21:24.495Z,103285.30
2018-05-21T15:23:01.077Z,103308.75
2018-05-21T15:24:38.027Z,103324.98
2018-05-21T15:26:15.225Z,103384.09
2018-05-21T15:27:51.599Z,103475.23
2018-05-21T15:29:28.975Z,103521.73
2018-05-21T15:31:07.206Z,103434.18
2018-05-21T15:32:44.381Z,103400.33
2018-05-21T15:34:20.836Z,103369.64
2018-05-21T15:35:57.226Z,103398.52
2018-05-21T15:37:37.529Z,103522.20
2018-05-21T15:39:13.891Z,103510.02
2018-05-21T15:40:50.275Z,103419.27
2018-05-21T15:42:27.534Z,103329.45
2018-05-21T15:44:04.539Z,103271.18
2018-05-21T15:45:43.462Z,103339.36
2018-05-21T15:48:51.929Z,103433.27
2018-05-21T15:50:29.631Z,103642.31
2018-05-21T15:52:06.863Z,103780.61
2018-05-21T15:53:43.217Z,103775.61
2018-05-21T15:55:19.721Z,103597.14
2018-05-21T15:56:57.322Z,103537.48
2018-05-21T15:58:34.569Z,103493.25
2018-05-21T16:00:10.976Z,103504.49
2018-05-21T16:01:47.322Z,103471.91
2018-05-21T16:03:24.713Z,103484.17
2018-05-21T16:05:01.049Z,103471.55
2018-05-21T16:06:37.517Z,103318.09
2018-05-21T16:08:13.815Z,103296.03
2018-05-21T16:09:50.662Z,103327.55
2018-05-21T16:11:27.225Z,103341.53
2018-05-21T16:13:03.564Z,103283.27
2018-05-21T16:14:39.841Z,103296.84
2018-05-21T16:16:16.734Z,103328.85
2018-05-21T16:17:53.848Z,103330.66
2018-05-21T16:19:31.143Z,103340.12
2018-05-21T16:21:07.446Z,103320.80
2018-05-21T16:22:44.669Z,103265.16
2018-05-21T16:24:21.006Z,103333.84
2018-05-21T16:25:57.310Z,103457.91
2018-05-21T16:27:33.851Z,103553.58
2018-05-21T16:29:10.598Z,103432.64
2018-05-21T16:30:47.915Z,103394.25
2018-05-21T16:32:24.299Z,103382.98
2018-05-21T16:34:00.718Z,103305.38
2018-05-21T16:35:37.659Z,103278.25
2018-05-21T16:37:14.741Z,103255.71
2018-05-21T16:38:51.176Z,103247.55
2018-05-21T16:40:27.628Z,103311.67
2018-05-21T16:42:05.220Z,103313.42
2018-05-21T16:43:41.543Z,103274.60
2018-05-21T16:45:19.585Z,103280.00
2018-05-21T16:46:56.053Z,103361.70
2018-05-21T16:48:33.090Z,103425.28
2018-05-21T16:50:09.946Z,103407.25
2018-05-21T16:51:46.965Z,103450.11
2018-05-21T16:53:23.471Z,103408.19
2018-05-21T16:55:01.069Z,103369.78
2018-05-21T16:56:37.409Z,103368.00
2018-05-21T16:58:13.860Z,103424.83
2018-05-21T16:59:50.161Z,103546.29
2018-05-21T17:01:27.247Z,103623.98
2018-05-21T17:03:03.630Z,103620.84
2018-05-21T17:04:40.751Z,103477.14
2018-05-21T17:06:17.113Z,103440.19
2018-05-21T17:07:54.349Z,103382.44
2018-05-21T17:09:31.765Z,103380.61
2018-05-21T17:11:08.167Z,103353.05
2018-05-21T17:12:44.586Z,103322.83
2018-05-21T17:14:21.318Z,103268.64
2018-05-21T17:15:58.076Z,103266.83
2018-05-21T17:17:34.862Z,103247.01
2018-05-21T17:19:12.418Z,103219.00
2018-05-21T17:20:49.264Z,103223.11
2018-05-21T17:22:26.048Z,103269.11
2018-05-21T17:24:02.577Z,103292.05
2018-05-21T17:25:39.800Z,103270.01
2018-05-21T17:27:16.594Z,103243.39
2018-05-21T17:28:53.913Z,103216.74
2018-05-21T17:30:30.674Z,103193.33
2018-05-21T17:32:07.021Z,103123.03
2018-05-21T17:33:44.554Z,103078.88
2018-05-21T17:35:21.740Z,103054.56
2018-05-21T17:36:59.687Z,103042.37
2018-05-21T17:38:36.357Z,103051.84
2018-05-21T17:40:12.979Z,103036.45
2018-05-21T17:41:50.173Z,103067.11
2018-05-21T17:43:26.478Z,103059.88
2018-05-21T17:45:02.775Z,103060.39
2018-05-21T17:46:40.746Z,103039.63
2018-05-21T17:48:17.064Z,103056.33
2018-05-21T17:49:53.693Z,103091.90
2018-05-21T17:51:31.474Z,103113.97
2018-05-21T17:53:08.105Z,103155.01
2018-05-21T17:54:44.501Z,103181.58
2018-05-21T17:56:22.522Z,103196.01
2018-05-21T17:57:59.585Z,103223.50
2018-05-21T17:59:36.638Z,103240.15
2018-05-21T18:01:13.400Z,103153.64
2018-05-21T18:02:49.800Z,103116.18
2018-05-21T18:04:26.229Z,103138.29
2018-05-21T18:06:02.944Z,103116.65
2018-05-21T18:07:39.669Z,103093.67
2018-05-21T18:09:15.991Z,103103.14
2018-05-21T18:10:53.181Z,103161.22
2018-05-21T18:12:29.897Z,103232.44
2018-05-21T18:14:06.497Z,103312.31
2018-05-21T18:15:43.895Z,103335.78
2018-05-21T18:17:28.132Z,103292.91
2018-05-21T18:19:05.624Z,103237.84
2018-05-21T18:20:43.138Z,103217.13
2018-05-21T18:22:19.914Z,103222.56
2018-05-21T18:23:57.786Z,103171.61
2018-05-21T18:25:35.909Z,103138.67
2018-05-21T18:27:13.373Z,103091.39
2018-05-21T18:28:50.403Z,103058.98
2018-05-21T18:30:28.598Z,103034.62
2018-05-21T18:32:06.228Z,103044.09
2018-05-21T18:33:43.946Z,103055.78
2018-05-21T18:35:21.200Z,103145.91